Time;durP1;ratioP1;P1;durP2;ratioP2;P2;SDS_P1;SDS_P2;PMS_P1;PMS_P2;Temp;Humidity;BMP_temperature;BMP_pressure;BME280_temperature;BME280_humidity;BME280_pressure;Samples;Min_cycle;Max_cycle;Signal;HPM_P1;HPM_P2
2023/03/26 00:01:22;;;;;;;4.73;1.00;;;7.90;99.90;;;;;;5087385;28;20432;-69
2023/03/26 00:03:52;;;;;;;4.00;0.87;;;7.90;99.90;;;;;;5087157;28;20215;-70
2023/03/26 00:06:29;;;;;;;4.50;1.20;;;7.90;99.90;;;;;;5087324;28;20945;-70
2023/03/26 00:08:56;;;;;;;3.47;1.23;;;7.90;99.90;;;;;;5087341;28;20416;-70
2023/03/26 00:11:24;;;;;;;8.27;1.43;;;7.90;99.90;;;;;;5088676;28;20457;-70
2023/03/26 00:13:52;;;;;;;2.80;1.10;;;7.90;99.90;;;;;;5088823;28;20408;-70
2023/03/26 00:16:19;;;;;;;3.60;0.87;;;7.90;99.90;;;;;;5088960;28;20991;-70
2023/03/26 00:18:45;;;;;;;6.93;1.13;;;7.80;99.90;;;;;;5089008;28;20761;-69
2023/03/26 00:21:16;;;;;;;8.87;1.23;;;7.80;99.90;;;;;;5089128;28;20452;-70
2023/03/26 00:23:42;;;;;;;4.80;1.10;;;7.70;99.90;;;;;;5089048;28;20534;-70
2023/03/26 00:26:11;;;;;;;7.33;1.10;;;7.60;99.90;;;;;;5089009;28;20414;-69
2023/03/26 00:28:39;;;;;;;3.90;1.43;;;7.60;99.90;;;;;;5088739;28;20521;-70
2023/03/26 00:31:06;;;;;;;3.67;1.20;;;7.60;99.90;;;;;;5087746;28;20468;-70
2023/03/26 00:33:37;;;;;;;3.63;1.40;;;7.70;99.90;;;;;;5089486;28;20405;-70
2023/03/26 00:36:04;;;;;;;3.97;1.10;;;7.80;99.90;;;;;;5088718;28;20412;-70
2023/03/26 00:38:32;;;;;;;3.03;1.10;;;7.90;99.90;;;;;;5087864;28;21023;-70
2023/03/26 00:41:04;;;;;;;4.97;1.00;;;7.90;99.90;;;;;;5087063;28;20483;-70
2023/03/26 00:43:32;;;;;;;3.00;1.20;;;7.90;99.90;;;;;;5088819;28;20424;-70
2023/03/26 00:45:58;;;;;;;4.50;1.00;;;7.90;99.90;;;;;;5088701;28;20419;-70
2023/03/26 00:48:26;;;;;;;6.43;1.23;;;7.80;99.90;;;;;;5089512;28;20425;-70
2023/03/26 00:50:52;;;;;;;9.10;1.20;;;7.70;99.90;;;;;;5088423;28;20473;-69
2023/03/26 00:53:18;;;;;;;10.63;0.90;;;7.80;99.90;;;;;;5091702;28;20424;-69
2023/03/26 00:55:45;;;;;;;4.23;1.23;;;7.90;99.90;;;;;;5092673;28;20175;-69
2023/03/26 00:58:12;;;;;;;2.40;1.10;;;7.90;99.90;;;;;;5092838;28;20406;-69
2023/03/26 01:00:56;;;;;;;4.20;1.63;;;7.90;99.90;;;;;;5092743;28;20436;-69
2023/03/26 01:03:24;;;;;;;4.00;1.33;;;7.90;99.90;;;;;;5092601;28;20413;-69
2023/03/26 01:06:01;;;;;;;9.70;1.30;;;8.00;99.90;;;;;;5092584;28;20467;-69
2023/03/26 01:08:35;;;;;;;4.40;0.97;;;7.90;99.90;;;;;;5091055;28;20427;-69
2023/03/26 01:11:12;;;;;;;9.17;1.13;;;8.00;99.90;;;;;;5091998;28;20843;-69
2023/03/26 01:13:48;;;;;;;6.17;1.23;;;8.00;99.90;;;;;;5092144;28;20394;-69
2023/03/26 01:16:33;;;;;;;5.87;0.87;;;7.90;99.90;;;;;;5091841;28;20436;-69
2023/03/26 01:18:59;;;;;;;4.10;1.30;;;7.80;99.90;;;;;;5091708;28;20470;-69
2023/03/26 01:21:28;;;;;;;2.90;1.33;;;7.60;99.90;;;;;;5091633;28;20439;-69
2023/03/26 01:24:05;;;;;;;2.90;0.90;;;7.50;99.90;;;;;;5089956;28;20428;-69
2023/03/26 01:26:51;;;;;;;2.90;0.80;;;7.40;99.90;;;;;;5091493;28;20413;-69
2023/03/26 01:29:48;;;;;;;4.10;1.10;;;7.40;99.90;;;;;;5091561;28;20415;-69
2023/03/26 01:32:38;;;;;;;3.90;1.10;;;7.40;99.90;;;;;;5083127;28;20525;-69
2023/03/26 01:35:18;;;;;;;6.37;1.10;;;7.40;99.90;;;;;;5091507;28;20407;-69
2023/03/26 01:38:09;;;;;;;9.00;1.47;;;7.50;99.90;;;;;;5091199;28;20463;-69
2023/03/26 01:40:51;;;;;;;9.23;1.60;;;7.60;99.90;;;;;;5091242;28;20424;-68
2023/03/26 01:43:16;;;;;;;1.60;0.90;;;7.60;99.90;;;;;;5091077;28;20408;-68
2023/03/26 01:45:44;;;;;;;3.93;1.07;;;7.60;99.90;;;;;;5091240;28;20404;-68
2023/03/26 01:48:11;;;;;;;4.40;0.83;;;7.60;99.90;;;;;;5091096;28;20171;-68
2023/03/26 01:50:37;;;;;;;2.17;0.97;;;7.60;99.90;;;;;;5090838;28;21039;-68
2023/03/26 01:53:03;;;;;;;3.83;1.20;;;7.70;99.90;;;;;;5090909;28;20501;-68
2023/03/26 01:55:52;;;;;;;2.93;0.90;;;7.70;99.90;;;;;;5091444;28;20202;-68
2023/03/26 01:58:30;;;;;;;8.63;1.40;;;7.80;99.90;;;;;;5091193;28;20466;-68
2023/03/26 02:01:15;;;;;;;4.53;1.23;;;7.80;99.90;;;;;;5090814;28;20447;-70
2023/03/26 02:03:49;;;;;;;7.67;0.70;;;7.80;99.90;;;;;;5090012;28;20470;-69
2023/03/26 02:06:33;;;;;;;3.37;1.43;;;7.80;99.90;;;;;;5090708;28;20446;-69
2023/03/26 02:09:06;;;;;;;7.57;1.10;;;7.80;99.90;;;;;;5090728;28;20991;-69
2023/03/26 02:11:33;;;;;;;9.00;2.27;;;7.80;99.90;;;;;;5090551;28;20473;-69
2023/03/26 02:13:59;;;;;;;3.13;0.90;;;7.80;99.90;;;;;;5089413;28;20439;-69
2023/03/26 02:16:24;;;;;;;17.03;1.37;;;7.80;99.90;;;;;;5090621;28;20418;-69
2023/03/26 02:18:54;;;;;;;2.70;1.13;;;7.90;99.90;;;;;;5090598;28;20413;-69
2023/03/26 02:21:24;;;;;;;7.63;1.30;;;7.90;99.90;;;;;;5088948;28;20212;-69
2023/03/26 02:23:56;;;;;;;7.13;0.93;;;7.90;99.90;;;;;;5090692;28;20489;-69
2023/03/26 02:26:23;;;;;;;7.77;1.33;;;8.00;99.90;;;;;;5090375;28;20423;-69
2023/03/26 02:28:49;;;;;;;4.13;1.30;;;7.90;99.90;;;;;;5090528;28;20792;-69
2023/03/26 02:31:16;;;;;;;9.13;1.10;;;7.90;99.90;;;;;;5089992;28;20925;-69
2023/03/26 02:33:43;;;;;;;9.50;1.80;;;7.90;99.90;;;;;;5090409;28;20432;-69
2023/03/26 02:36:12;;;;;;;6.93;1.30;;;7.90;99.90;;;;;;5090153;28;21208;-69
2023/03/26 02:38:39;;;;;;;10.63;1.80;;;8.00;99.90;;;;;;5089929;28;20444;-68
2023/03/26 02:41:04;;;;;;;4.60;1.10;;;8.10;99.90;;;;;;5089999;28;20430;-68
2023/03/26 02:43:30;;;;;;;7.47;1.20;;;8.10;99.90;;;;;;5088562;28;21271;-68
2023/03/26 02:45:56;;;;;;;8.97;1.50;;;8.10;99.90;;;;;;5089881;28;20672;-69
2023/03/26 02:48:21;;;;;;;6.67;1.20;;;8.10;99.90;;;;;;5090265;28;20187;-69
2023/03/26 02:50:49;;;;;;;3.47;1.33;;;8.10;99.90;;;;;;5089694;28;20588;-69
2023/03/26 02:53:17;;;;;;;7.40;1.30;;;8.00;99.90;;;;;;5089889;28;20171;-69
2023/03/26 02:55:43;;;;;;;7.00;1.40;;;8.00;99.90;;;;;;5089847;28;20416;-69
2023/03/26 02:58:11;;;;;;;4.77;1.33;;;8.10;99.90;;;;;;5089711;28;20601;-69
2023/03/26 03:00:36;;;;;;;5.10;1.60;;;8.00;99.90;;;;;;5089691;28;20466;-69
2023/03/26 03:03:03;;;;;;;9.03;2.20;;;7.90;99.90;;;;;;5089715;28;20772;-69
2023/03/26 03:05:30;;;;;;;6.80;1.23;;;7.80;99.90;;;;;;5089600;28;20410;-69
2023/03/26 03:07:57;;;;;;;9.40;1.43;;;7.80;99.90;;;;;;5089600;28;20417;-69
2023/03/26 03:10:25;;;;;;;5.40;1.20;;;7.90;99.90;;;;;;5089328;28;20440;-69
2023/03/26 03:12:50;;;;;;;8.93;1.37;;;8.00;99.90;;;;;;5071306;28;20568;-69
2023/03/26 03:15:16;;;;;;;2.97;1.07;;;7.90;99.90;;;;;;5089657;28;20551;-68
2023/03/26 03:17:41;;;;;;;5.13;1.27;;;7.80;99.90;;;;;;5089614;28;20222;-68
2023/03/26 03:20:10;;;;;;;6.30;1.47;;;7.70;99.90;;;;;;5089340;28;20216;-68
2023/03/26 03:22:36;;;;;;;13.67;3.90;;;7.60;99.90;;;;;;5088055;28;20190;-68
2023/03/26 03:25:03;;;;;;;8.70;1.40;;;7.60;99.90;;;;;;5088065;28;20436;-69
2023/03/26 03:27:29;;;;;;;7.03;1.20;;;7.50;99.90;;;;;;5089369;28;20421;-68
2023/03/26 03:29:55;;;;;;;6.20;1.50;;;7.60;99.90;;;;;;5088941;28;20551;-68
2023/03/26 03:32:21;;;;;;;10.17;2.30;;;7.60;99.90;;;;;;5087885;28;20297;-69
2023/03/26 03:34:51;;;;;;;4.70;1.47;;;7.70;99.90;;;;;;5088130;28;20225;-68
2023/03/26 03:37:18;;;;;;;12.33;1.77;;;7.80;99.90;;;;;;5087766;28;20436;-68
2023/03/26 03:39:44;;;;;;;3.00;1.30;;;7.80;99.90;;;;;;5089221;28;20412;-68
2023/03/26 03:42:10;;;;;;;13.00;1.37;;;7.80;99.90;;;;;;5089275;28;20428;-68
2023/03/26 03:44:36;;;;;;;5.87;1.47;;;7.80;99.90;;;;;;5089312;28;20411;-68
2023/03/26 03:47:02;;;;;;;14.53;2.17;;;7.80;99.90;;;;;;5087854;28;20463;-69
2023/03/26 03:49:28;;;;;;;5.77;1.27;;;7.80;99.90;;;;;;5089571;28;20462;-69
2023/03/26 03:51:54;;;;;;;3.93;1.53;;;7.90;99.90;;;;;;5089546;28;20637;-69
2023/03/26 03:54:20;;;;;;;7.03;1.47;;;7.80;99.90;;;;;;5089394;28;20589;-69
2023/03/26 03:56:47;;;;;;;6.13;1.37;;;7.80;99.90;;;;;;5088101;28;20178;-69
2023/03/26 03:59:14;;;;;;;6.77;1.30;;;7.80;99.90;;;;;;5089303;28;20173;-69
2023/03/26 04:01:42;;;;;;;6.33;1.30;;;7.80;99.90;;;;;;5087911;28;20437;-68
2023/03/26 04:04:08;;;;;;;5.90;1.30;;;7.80;99.90;;;;;;5087783;28;20856;-68
2023/03/26 04:06:34;;;;;;;8.20;1.70;;;7.70;99.90;;;;;;5089413;28;20427;-69
2023/03/26 04:08:59;;;;;;;5.33;1.00;;;7.70;99.90;;;;;;5087934;28;20425;-69
2023/03/26 04:11:25;;;;;;;4.47;1.20;;;7.70;99.90;;;;;;5089721;28;20266;-69
2023/03/26 04:13:51;;;;;;;5.20;1.33;;;7.70;99.90;;;;;;5089514;28;20418;-69
2023/03/26 04:16:16;;;;;;;7.53;1.23;;;7.70;99.90;;;;;;5088858;28;20186;-69
2023/03/26 04:18:44;;;;;;;4.03;1.40;;;7.70;99.90;;;;;;5070733;28;20189;-70
2023/03/26 04:21:11;;;;;;;9.97;1.40;;;7.70;99.90;;;;;;5088575;28;20203;-69
2023/03/26 04:23:37;;;;;;;7.90;1.33;;;7.70;99.90;;;;;;5088779;28;20574;-69
2023/03/26 04:26:05;;;;;;;8.60;1.23;;;7.70;99.90;;;;;;5088595;28;20442;-68
2023/03/26 04:28:46;;;;;;;8.20;1.37;;;7.70;99.90;;;;;;5092197;28;20507;-68
2023/03/26 04:31:15;;;;;;;3.83;1.13;;;7.70;99.90;;;;;;5092464;28;20463;-68
2023/03/26 04:33:47;;;;;;;10.63;1.70;;;7.80;99.90;;;;;;5092735;28;20404;-68
2023/03/26 04:36:14;;;;;;;5.23;1.20;;;7.80;99.90;;;;;;5093007;28;20412;-68
2023/03/26 04:38:44;;;;;;;3.67;1.27;;;7.80;99.90;;;;;;5092217;28;20442;-68
2023/03/26 04:41:14;;;;;;;8.10;1.80;;;7.80;99.90;;;;;;5092596;28;20431;-68
2023/03/26 04:43:46;;;;;;;5.70;1.17;;;7.80;99.90;;;;;;5092367;28;20453;-68
2023/03/26 04:46:17;;;;;;;3.27;1.20;;;7.80;99.90;;;;;;5092361;28;20588;-68
2023/03/26 04:48:43;;;;;;;4.87;1.37;;;7.70;99.90;;;;;;5092283;28;20408;-68
2023/03/26 04:51:16;;;;;;;8.10;1.97;;;7.80;99.90;;;;;;5092153;28;20463;-68
2023/03/26 04:54:01;;;;;;;8.47;2.00;;;7.80;99.90;;;;;;5092240;28;20409;-68
2023/03/26 04:56:45;;;;;;;4.30;1.40;;;7.80;99.90;;;;;;5092265;28;20404;-69
2023/03/26 04:59:15;;;;;;;8.00;1.50;;;7.80;99.90;;;;;;5092091;28;20453;-69
2023/03/26 05:01:44;;;;;;;7.60;1.30;;;7.80;99.90;;;;;;5091843;28;20507;-69
2023/03/26 05:04:12;;;;;;;6.23;1.80;;;7.80;99.90;;;;;;5092071;28;21219;-69
2023/03/26 05:06:38;;;;;;;5.60;1.47;;;7.90;99.90;;;;;;5091841;28;20445;-69
2023/03/26 05:09:04;;;;;;;7.03;1.77;;;7.90;99.90;;;;;;5091845;28;20427;-69
2023/03/26 05:11:30;;;;;;;6.43;1.57;;;8.00;99.90;;;;;;5091829;28;20452;-69
2023/03/26 05:13:56;;;;;;;3.47;1.40;;;8.00;99.90;;;;;;5090589;28;20178;-69
2023/03/26 05:16:22;;;;;;;7.40;1.20;;;8.00;99.90;;;;;;5091697;28;20414;-69
2023/03/26 05:18:48;;;;;;;5.73;2.20;;;8.00;99.90;;;;;;5090352;28;20456;-68
2023/03/26 05:21:14;;;;;;;4.53;1.47;;;8.00;99.90;;;;;;5091664;28;20479;-69
2023/03/26 05:23:40;;;;;;;8.60;1.70;;;7.90;99.90;;;;;;5091879;28;20183;-68
2023/03/26 05:26:06;;;;;;;12.70;1.93;;;7.80;99.90;;;;;;5091770;28;20205;-68
2023/03/26 05:28:32;;;;;;;3.00;1.80;;;7.90;99.90;;;;;;5091686;28;20183;-69
2023/03/26 05:30:57;;;;;;;8.57;1.27;;;7.90;99.90;;;;;;5091649;28;20909;-69
2023/03/26 05:33:23;;;;;;;7.80;1.27;;;7.90;99.90;;;;;;5090610;28;20655;-68
2023/03/26 05:36:03;;;;;;;4.93;1.37;;;8.00;99.90;;;;;;5090684;28;20175;-68
2023/03/26 05:38:30;;;;;;;4.40;0.90;;;8.30;99.90;;;;;;5089478;28;20198;-69
2023/03/26 05:41:04;;;;;;;5.97;1.50;;;8.50;99.90;;;;;;5091914;28;20433;-69
2023/03/26 05:43:29;;;;;;;4.17;1.30;;;8.60;99.90;;;;;;5092537;28;20758;-69
2023/03/26 05:45:55;;;;;;;10.43;1.43;;;8.60;99.90;;;;;;5090234;28;20433;-69
2023/03/26 05:48:21;;;;;;;6.80;1.40;;;8.40;99.90;;;;;;5091738;28;20221;-69
2023/03/26 05:50:52;;;;;;;3.93;1.33;;;8.30;99.90;;;;;;5091325;28;20520;-69
2023/03/26 05:53:19;;;;;;;3.80;1.07;;;8.20;99.90;;;;;;5091589;28;20471;-69
2023/03/26 05:55:46;;;;;;;7.20;1.40;;;8.20;99.90;;;;;;5073394;28;20512;-69
2023/03/26 05:58:12;;;;;;;5.10;1.33;;;8.40;99.90;;;;;;5091329;28;20441;-70
2023/03/26 06:00:38;;;;;;;3.60;1.43;;;8.30;99.90;;;;;;5091202;28;20433;-69
2023/03/26 06:03:04;;;;;;;8.87;1.23;;;8.40;99.90;;;;;;5091385;28;20469;-70
2023/03/26 06:05:36;;;;;;;7.57;1.00;;;8.30;99.90;;;;;;5089660;28;20182;-70
2023/03/26 06:08:02;;;;;;;5.47;1.20;;;8.30;99.90;;;;;;5090949;28;20464;-70
2023/03/26 06:10:29;;;;;;;5.57;1.00;;;8.20;99.90;;;;;;5090823;28;20443;-70
2023/03/26 06:12:54;;;;;;;3.60;1.07;;;8.10;99.90;;;;;;5090812;28;20460;-69
2023/03/26 06:15:20;;;;;;;2.30;1.20;;;8.10;99.90;;;;;;5090832;28;20423;-70
2023/03/26 06:17:46;;;;;;;3.50;0.97;;;8.10;99.90;;;;;;5090738;28;20684;-70
2023/03/26 06:20:12;;;;;;;2.50;1.10;;;8.10;99.90;;;;;;5090437;28;20221;-70
2023/03/26 06:22:38;;;;;;;7.67;1.63;;;8.00;99.90;;;;;;5089355;28;20843;-69
2023/03/26 06:25:04;;;;;;;8.97;1.27;;;8.00;99.90;;;;;;5090528;28;20507;-70
2023/03/26 06:27:29;;;;;;;6.90;1.50;;;7.90;99.90;;;;;;5089304;28;20193;-69
2023/03/26 06:29:55;;;;;;;4.87;1.67;;;7.90;99.90;;;;;;5090423;28;21077;-69
2023/03/26 06:32:21;;;;;;;3.40;1.60;;;8.00;99.90;;;;;;5090445;28;20210;-70
2023/03/26 06:34:47;;;;;;;4.30;1.67;;;8.00;99.90;;;;;;5088800;28;20686;-70
2023/03/26 06:37:12;;;;;;;7.47;1.53;;;8.10;99.90;;;;;;5090479;28;20879;-70
2023/03/26 06:39:38;;;;;;;6.97;1.63;;;8.10;99.90;;;;;;5090329;28;20670;-70
2023/03/26 06:42:04;;;;;;;2.37;1.30;;;8.10;99.90;;;;;;5088561;28;20264;-70
2023/03/26 06:44:29;;;;;;;12.87;1.23;;;8.00;99.90;;;;;;5090236;28;20202;-70
2023/03/26 06:46:55;;;;;;;2.53;1.27;;;8.00;99.90;;;;;;5088949;28;20179;-70
2023/03/26 06:49:20;;;;;;;8.40;1.30;;;7.90;99.90;;;;;;5089930;28;20189;-69
2023/03/26 06:51:46;;;;;;;9.67;1.33;;;7.90;99.90;;;;;;5089734;28;20217;-69
2023/03/26 06:54:12;;;;;;;8.00;1.80;;;7.90;99.90;;;;;;5089866;28;20175;-69
2023/03/26 06:56:38;;;;;;;6.20;1.40;;;7.80;99.90;;;;;;5090023;28;20206;-69
2023/03/26 06:59:04;;;;;;;4.00;1.47;;;7.70;99.90;;;;;;5089814;28;20517;-69
2023/03/26 07:01:29;;;;;;;4.90;2.10;;;7.80;99.90;;;;;;5088140;28;20207;-70
2023/03/26 07:03:55;;;;;;;5.53;1.67;;;7.70;99.90;;;;;;5089849;28;20186;-69
2023/03/26 07:06:21;;;;;;;8.03;1.33;;;7.80;99.90;;;;;;5089928;28;20189;-69
2023/03/26 07:08:47;;;;;;;5.33;1.37;;;7.70;99.90;;;;;;5089904;28;20416;-69
2023/03/26 07:11:12;;;;;;;6.07;1.50;;;7.70;99.90;;;;;;5089709;28;20519;-69
2023/03/26 07:13:38;;;;;;;5.43;1.83;;;7.70;99.90;;;;;;5090020;28;20255;-69
2023/03/26 07:16:05;;;;;;;9.53;2.30;;;7.70;99.90;;;;;;5088356;28;20694;-70
2023/03/26 07:18:31;;;;;;;3.20;1.60;;;7.70;99.90;;;;;;5088337;28;20439;-69
2023/03/26 07:20:57;;;;;;;9.83;2.33;;;7.70;99.90;;;;;;5089706;28;20441;-70
2023/03/26 07:23:23;;;;;;;12.10;2.33;;;7.70;99.90;;;;;;5089620;28;20828;-69
2023/03/26 07:25:49;;;;;;;5.57;2.07;;;7.60;99.90;;;;;;5089364;28;20413;-69
2023/03/26 07:28:41;;;;;;;8.40;1.60;;;7.60;99.90;;;;;;5087902;28;20515;-69
2023/03/26 07:31:28;;;;;;;14.43;2.20;;;7.60;99.90;;;;;;5089784;28;20606;-69
2023/03/26 07:33:53;;;;;;;11.20;2.00;;;7.60;99.90;;;;;;5089456;28;20411;-69
2023/03/26 07:36:45;;;;;;;6.50;1.77;;;7.50;99.90;;;;;;5089815;28;20408;-69
2023/03/26 07:39:27;;;;;;;7.20;1.70;;;7.50;99.90;;;;;;5088219;28;20191;-69
2023/03/26 07:42:07;;;;;;;7.93;1.83;;;7.60;99.90;;;;;;5089212;28;20428;-68
2023/03/26 07:44:46;;;;;;;4.83;2.23;;;7.60;99.90;;;;;;5089110;28;20405;-69
2023/03/26 07:47:27;;;;;;;3.23;1.80;;;7.50;99.90;;;;;;5089253;28;20412;-69
2023/03/26 07:49:56;;;;;;;4.53;2.40;;;7.50;99.90;;;;;;5089225;28;20405;-70
2023/03/26 07:52:22;;;;;;;7.67;1.73;;;7.50;99.90;;;;;;5089090;28;21283;-69
2023/03/26 07:54:48;;;;;;;7.57;2.47;;;7.50;99.90;;;;;;5087976;28;20415;-69
2023/03/26 07:57:37;;;;;;;8.53;1.70;;;7.50;99.90;;;;;;5089324;28;20454;-70
2023/03/26 08:00:10;;;;;;;10.50;2.47;;;7.40;99.90;;;;;;5089041;28;20419;-69
2023/03/26 08:02:48;;;;;;;5.67;1.53;;;7.50;99.90;;;;;;5088581;28;20412;-69
2023/03/26 08:05:27;;;;;;;7.73;1.80;;;7.50;99.90;;;;;;5089666;28;20794;-69
2023/03/26 08:08:35;;;;;;;9.47;2.07;;;7.50;99.90;;;;;;5090948;28;20410;-69
2023/03/26 08:11:19;;;;;;;6.70;1.67;;;7.50;99.90;;;;;;5062158;28;20480;-70
2023/03/26 08:14:00;;;;;;;6.73;1.70;;;7.60;99.90;;;;;;5088284;28;20461;-69
2023/03/26 08:16:57;;;;;;;4.93;1.50;;;7.60;99.90;;;;;;5089383;28;20390;-69
2023/03/26 08:19:53;;;;;;;4.83;1.70;;;7.60;99.90;;;;;;5044243;28;20521;-69
2023/03/26 08:22:26;;;;;;;4.90;1.53;;;7.60;99.90;;;;;;5087685;28;20424;-69
2023/03/26 08:25:16;;;;;;;11.37;1.50;;;7.70;99.90;;;;;;5089506;28;20403;-69
2023/03/26 08:28:18;;;;;;;10.70;1.90;;;7.70;99.90;;;;;;5088035;28;20895;-69
2023/03/26 08:30:45;;;;;;;12.70;1.73;;;7.70;99.90;;;;;;5087634;28;20484;-69
2023/03/26 08:33:16;;;;;;;11.23;2.10;;;7.60;99.90;;;;;;5089539;28;20911;-68
2023/03/26 08:35:42;;;;;;;9.70;1.80;;;7.60;99.90;;;;;;5089018;28;20421;-69
2023/03/26 08:38:09;;;;;;;11.83;1.90;;;7.60;99.90;;;;;;5087322;28;20524;-69
2023/03/26 08:41:00;;;;;;;9.53;1.70;;;7.60;99.90;;;;;;5088640;28;20445;-68
2023/03/26 08:43:46;;;;;;;5.50;1.80;;;7.60;99.90;;;;;;5088428;28;20495;-69
2023/03/26 08:46:45;;;;;;;6.57;2.20;;;7.60;99.90;;;;;;5088397;28;20430;-68
2023/03/26 08:49:48;;;;;;;11.03;2.40;;;7.60;99.90;;;;;;5086929;28;20843;-68
2023/03/26 08:52:34;;;;;;;5.27;1.93;;;7.60;99.90;;;;;;5088221;28;20466;-69
2023/03/26 08:55:24;;;;;;;5.50;1.47;;;7.70;99.90;;;;;;5088594;28;20412;-69
2023/03/26 08:58:15;;;;;;;5.77;1.57;;;7.70;99.90;;;;;;5088507;28;20408;-69
2023/03/26 09:01:00;;;;;;;3.47;2.03;;;7.70;99.90;;;;;;5088476;28;20494;-68
2023/03/26 09:03:49;;;;;;;11.57;3.17;;;7.70;99.90;;;;;;5088293;28;20408;-68
2023/03/26 09:06:29;;;;;;;2.73;1.30;;;7.80;99.90;;;;;;5088231;28;20405;-68
2023/03/26 09:09:32;;;;;;;12.93;3.13;;;7.90;99.90;;;;;;5088184;28;20401;-68
2023/03/26 09:12:07;;;;;;;39.13;17.43;;;8.00;99.90;;;;;;5088030;28;20467;-68
2023/03/26 09:15:04;;;;;;;61.33;27.27;;;8.00;99.90;;;;;;5089866;28;20428;-69
2023/03/26 09:17:33;;;;;;;6.87;4.20;;;8.00;99.90;;;;;;5091783;28;20494;-68
2023/03/26 09:20:44;;;;;;;30.10;12.03;;;8.10;99.90;;;;;;5091511;28;20413;-69
2023/03/26 09:23:37;;;;;;;6.23;2.50;;;8.10;99.90;;;;;;5090274;28;20416;-68
2023/03/26 09:26:30;;;;;;;14.90;7.40;;;8.20;99.90;;;;;;5090162;28;20413;-68
2023/03/26 09:29:33;;;;;;;17.00;5.00;;;8.20;99.90;;;;;;5090196;28;20975;-69
2023/03/26 09:32:18;;;;;;;8.20;1.60;;;8.30;99.90;;;;;;5089891;28;21113;-68
2023/03/26 09:34:55;;;;;;;4.97;1.70;;;8.50;99.90;;;;;;5090151;28;20797;-68
2023/03/26 09:37:39;;;;;;;6.70;1.70;;;8.70;99.90;;;;;;5090036;28;20443;-69
2023/03/26 09:40:18;;;;;;;7.10;1.90;;;8.80;99.90;;;;;;5089918;28;21017;-69
2023/03/26 09:42:50;;;;;;;5.17;2.63;;;8.80;99.90;;;;;;5090059;28;20412;-69
2023/03/26 09:45:43;;;;;;;7.70;3.30;;;9.00;99.90;;;;;;5088478;28;20539;-69
2023/03/26 09:48:24;;;;;;;6.03;3.33;;;9.20;99.90;;;;;;5089826;28;20420;-68
2023/03/26 09:51:16;;;;;;;13.73;4.00;;;9.30;99.90;;;;;;5089734;28;20435;-68
2023/03/26 09:53:56;;;;;;;7.73;2.20;;;9.40;99.90;;;;;;5089586;28;20404;-69
2023/03/26 09:56:37;;;;;;;7.53;1.90;;;9.40;99.90;;;;;;5089895;28;21013;-68
2023/03/26 09:59:21;;;;;;;3.07;1.43;;;9.50;99.90;;;;;;5089838;28;20408;-69
2023/03/26 10:02:19;;;;;;;2.90;1.20;;;9.50;99.90;;;;;;5089621;28;20436;-69
2023/03/26 10:05:12;;;;;;;1.93;1.23;;;9.60;99.90;;;;;;5089452;28;20453;-69
2023/03/26 10:07:51;;;;;;;2.63;1.10;;;9.70;99.90;;;;;;5089495;28;20421;-69
2023/03/26 10:10:25;;;;;;;2.73;1.17;;;9.80;99.90;;;;;;5089451;28;20440;-69
2023/03/26 10:13:04;;;;;;;2.87;0.97;;;9.80;99.90;;;;;;5087904;28;20473;-69
2023/03/26 10:15:48;;;;;;;3.60;1.37;;;10.30;99.90;;;;;;5089211;28;20418;-69
2023/03/26 10:18:35;;;;;;;2.30;1.03;;;10.50;99.90;;;;;;5087832;28;20413;-69
2023/03/26 10:21:13;;;;;;;1.00;0.73;;;10.40;99.90;;;;;;5089177;28;21219;-69
2023/03/26 10:23:47;;;;;;;2.63;1.00;;;10.20;99.90;;;;;;5089158;28;20415;-69
2023/03/26 10:26:13;;;;;;;2.43;0.97;;;10.10;99.90;;;;;;5088553;28;20410;-69
2023/03/26 10:28:45;;;;;;;2.20;1.13;;;9.90;99.90;;;;;;5088939;28;20477;-69
2023/03/26 10:31:43;;;;;;;1.20;0.70;;;9.90;99.90;;;;;;5088832;28;20281;-68
2023/03/26 10:34:23;;;;;;;1.33;0.70;;;9.80;99.90;;;;;;5089098;28;20409;-69
2023/03/26 10:37:08;;;;;;;0.90;0.50;;;9.70;99.90;;;;;;5088867;28;20419;-68
2023/03/26 10:39:53;;;;;;;1.80;0.70;;;9.70;99.90;;;;;;5088942;28;20939;-69
2023/03/26 10:42:49;;;;;;;0.90;0.50;;;9.50;99.90;;;;;;5087668;28;20795;-69
2023/03/26 10:45:43;;;;;;;2.13;0.70;;;9.50;99.90;;;;;;5089030;28;20980;-69
2023/03/26 10:48:41;;;;;;;1.77;0.70;;;9.40;99.90;;;;;;5089038;28;20421;-69
2023/03/26 10:51:47;;;;;;;1.00;0.50;;;9.30;99.90;;;;;;5088593;28;20787;-69
2023/03/26 10:54:24;;;;;;;4.50;0.50;;;10.20;99.90;;;;;;5088423;28;20415;-69
2023/03/26 10:56:51;;;;;;;0.70;0.47;;;11.00;99.90;;;;;;5088381;28;20423;-69
2023/03/26 10:59:17;;;;;;;0.80;0.50;;;11.70;99.90;;;;;;5088479;28;20460;-69
2023/03/26 11:01:58;;;;;;;2.00;0.60;;;12.10;99.90;;;;;;5086751;28;20446;-69
2023/03/26 11:04:36;;;;;;;1.87;0.70;;;12.10;99.90;;;;;;5088369;28;20411;-71
2023/03/26 11:07:28;;;;;;;0.80;0.50;;;12.40;99.90;;;;;;5088344;28;20467;-69
2023/03/26 11:10:03;;;;;;;1.50;0.60;;;12.80;99.90;;;;;;5086891;28;20447;-69
2023/03/26 11:12:47;;;;;;;1.53;0.70;;;12.80;99.90;;;;;;5087776;28;20496;-69
2023/03/26 11:15:31;;;;;;;4.20;0.70;;;13.10;99.90;;;;;;5088407;28;20441;-69
2023/03/26 11:18:06;;;;;;;1.87;0.50;;;12.70;99.90;;;;;;5088119;28;21204;-69
2023/03/26 11:20:44;;;;;;;1.00;0.50;;;12.40;99.90;;;;;;5087923;28;20429;-69
2023/03/26 11:23:21;;;;;;;3.10;1.20;;;12.20;99.90;;;;;;5087952;28;20414;-70
2023/03/26 11:26:12;;;;;;;1.10;0.40;;;12.20;99.90;;;;;;5087938;28;20449;-70
2023/03/26 11:29:05;;;;;;;2.30;0.50;;;12.10;99.90;;;;;;5076758;28;20518;-70
2023/03/26 11:31:40;;;;;;;1.90;0.60;;;12.00;99.90;;;;;;5087648;28;21084;-69
2023/03/26 11:34:15;;;;;;;0.83;0.47;;;11.90;99.90;;;;;;5086255;28;20425;-69
2023/03/26 11:36:45;;;;;;;1.43;0.60;;;11.70;99.90;;;;;;5086898;28;20420;-69
2023/03/26 11:39:18;;;;;;;0.73;0.50;;;11.60;99.90;;;;;;5087660;28;20431;-69
2023/03/26 11:41:44;;;;;;;1.43;0.40;;;11.40;99.90;;;;;;5087654;28;20591;-69
2023/03/26 11:44:20;;;;;;;0.70;0.43;;;11.00;99.90;;;;;;5087844;28;20425;-69
2023/03/26 11:46:51;;;;;;;3.93;0.50;;;11.10;99.90;;;;;;5087724;28;20975;-69
2023/03/26 11:49:20;;;;;;;1.40;0.50;;;10.50;99.90;;;;;;5087686;28;20486;-69
2023/03/26 11:51:47;;;;;;;0.83;0.50;;;10.50;99.90;;;;;;5086059;28;20470;-69
2023/03/26 11:54:14;;;;;;;0.80;0.50;;;10.40;99.90;;;;;;5085840;28;20460;-69
2023/03/26 11:56:58;;;;;;;1.20;0.50;;;10.50;99.90;;;;;;5085998;28;20492;-69
2023/03/26 11:59:42;;;;;;;1.93;0.70;;;10.50;99.90;;;;;;5087725;28;20473;-69
2023/03/26 12:02:10;;;;;;;1.03;0.50;;;11.20;99.90;;;;;;5087720;28;20517;-70
2023/03/26 12:04:42;;;;;;;1.30;0.60;;;11.70;99.90;;;;;;5087773;28;20423;-69
2023/03/26 12:07:21;;;;;;;1.63;0.60;;;12.50;99.90;;;;;;5087970;28;20424;-70
2023/03/26 12:09:56;;;;;;;1.90;0.57;;;13.00;99.90;;;;;;5087986;28;20445;-69
2023/03/26 12:12:30;;;;;;;2.60;0.60;;;13.80;99.90;;;;;;5087975;28;20542;-69
2023/03/26 12:14:57;;;;;;;2.13;0.60;;;14.50;99.90;;;;;;5087934;28;20540;-69
2023/03/26 12:17:34;;;;;;;1.33;0.60;;;15.00;99.90;;;;;;5086626;28;20907;-70
2023/03/26 12:20:21;;;;;;;1.73;0.60;;;14.80;98.20;;;;;;5087816;28;20427;-69
2023/03/26 12:22:47;;;;;;;1.07;0.63;;;14.70;95.70;;;;;;5086243;28;20781;-69
2023/03/26 12:25:15;;;;;;;1.20;0.60;;;15.20;98.60;;;;;;5087512;28;20436;-69
2023/03/26 12:27:51;;;;;;;5.33;0.70;;;15.00;95.20;;;;;;5087958;28;20284;-69
2023/03/26 12:30:22;;;;;;;2.30;0.60;;;14.90;97.40;;;;;;5088134;28;21162;-69
2023/03/26 12:32:49;;;;;;;1.23;0.50;;;14.90;93.80;;;;;;5088657;28;20523;-69
2023/03/26 12:35:34;;;;;;;1.63;0.60;;;15.10;92.70;;;;;;5088310;28;20424;-69
2023/03/26 12:38:22;;;;;;;3.63;0.77;;;15.40;88.30;;;;;;5086922;28;20924;-69
2023/03/26 12:41:07;;;;;;;2.37;0.87;;;15.80;91.80;;;;;;5087752;28;20435;-69
2023/03/26 12:43:47;;;;;;;1.47;0.80;;;16.00;91.40;;;;;;5087228;28;20466;-69
2023/03/26 12:46:31;;;;;;;1.57;0.80;;;15.60;90.40;;;;;;5087180;28;20419;-69
2023/03/26 12:49:04;;;;;;;2.60;0.70;;;15.50;90.80;;;;;;5088092;28;20503;-69
2023/03/26 12:51:36;;;;;;;2.13;0.83;;;15.40;90.10;;;;;;5091130;28;20575;-70
2023/03/26 12:54:16;;;;;;;2.57;1.37;;;15.30;85.20;;;;;;5091078;28;20550;-69
2023/03/26 12:57:06;;;;;;;1.10;0.70;;;15.20;85.50;;;;;;5091071;28;20408;-69
2023/03/26 12:59:51;;;;;;;0.90;0.60;;;15.40;87.50;;;;;;5090884;28;20420;-69
2023/03/26 13:02:32;;;;;;;2.70;0.80;;;15.50;85.30;;;;;;5090758;28;20866;-69
2023/03/26 13:05:22;;;;;;;1.40;0.80;;;15.90;81.90;;;;;;5090972;28;20868;-69
2023/03/26 13:08:05;;;;;;;1.63;0.70;;;16.30;85.70;;;;;;5090826;28;20405;-68
2023/03/26 13:11:01;;;;;;;3.00;1.20;;;16.50;83.40;;;;;;5090979;28;20496;-70
2023/03/26 13:13:38;;;;;;;2.97;0.80;;;16.20;80.50;;;;;;5090845;28;20471;-70
2023/03/26 13:17:03;;;;;;;2.20;0.90;;;16.20;76.30;;;;;;5090635;28;20401;-69
2023/03/26 13:20:05;;;;;;;1.93;0.63;;;16.20;75.80;;;;;;5057434;28;20421;-70
2023/03/26 13:22:36;;;;;;;2.27;1.33;;;15.50;72.80;;;;;;5090953;28;20413;-69
2023/03/26 13:25:35;;;;;;;2.60;1.10;;;15.30;72.90;;;;;;5090796;28;20835;-70
2023/03/26 13:28:23;;;;;;;1.03;0.60;;;15.20;75.60;;;;;;5090891;28;20405;-69
2023/03/26 13:31:38;;;;;;;2.50;0.73;;;14.80;74.70;;;;;;5089311;28;20433;-69